Time;durP1;ratioP1;P1;durP2;ratioP2;P2;SDS_P1;SDS_P2;PMS_P1;PMS_P2;Temp;Humidity;BMP_temperature;BMP_pressure;BME280_temperature;BME280_humidity;BME280_pressure;Samples;Min_cycle;Max_cycle;Signal;HPM_P1;HPM_P2
2022/03/02 00:00:51;;;;;;;12.47;9.50;;;;;;;;;;5056433;28;20222;-19
2022/03/02 00:03:18;;;;;;;12.00;9.57;;;;;;;;;;5056587;28;20218;-19
2022/03/02 00:05:45;;;;;;;13.63;9.07;;;;;;;;;;5056213;28;20230;-19
2022/03/02 00:08:12;;;;;;;10.60;8.57;;;;;;;;;;5056371;28;20226;-19
2022/03/02 00:10:39;;;;;;;11.93;9.43;;;;;;;;;;5056259;28;20705;-19
2022/03/02 00:13:06;;;;;;;13.17;10.00;;;;;;;;;;5056814;28;20222;-19
2022/03/02 00:15:33;;;;;;;13.40;9.90;;;;;;;;;;5055764;28;20249;-19
2022/03/02 00:18:01;;;;;;;12.70;9.77;;;;;;;;;;5056590;28;20230;-20
2022/03/02 00:20:28;;;;;;;13.83;9.73;;;;;;;;;;5056441;28;20237;-19
2022/03/02 00:22:55;;;;;;;12.43;9.00;;;;;;;;;;5055425;28;20818;-19
2022/03/02 00:25:22;;;;;;;12.60;9.23;;;;;;;;;;5056541;28;20986;-19
2022/03/02 00:27:49;;;;;;;12.70;9.63;;;;;;;;;;5055767;28;20226;-19
2022/03/02 00:30:16;;;;;;;12.97;9.20;;;;;;;;;;5056933;28;20709;-19
2022/03/02 00:32:43;;;;;;;12.37;9.53;;;;;;;;;;5056679;28;20208;-19
2022/03/02 00:35:10;;;;;;;12.13;9.77;;;;;;;;;;5056419;28;20233;-19
2022/03/02 00:37:37;;;;;;;12.03;9.40;;;;;;;;;;5056196;28;20230;-19
2022/03/02 00:40:04;;;;;;;10.63;8.77;;;;;;;;;;5056685;28;20217;-19
2022/03/02 00:42:31;;;;;;;11.80;9.27;;;;;;;;;;5057105;28;20218;-19
2022/03/02 00:44:58;;;;;;;12.53;9.97;;;;;;;;;;5059709;28;20221;-20
2022/03/02 00:47:25;;;;;;;12.60;9.63;;;;;;;;;;5059764;28;20701;-19
2022/03/02 00:49:52;;;;;;;11.30;9.30;;;;;;;;;;5060405;28;20218;-19
2022/03/02 00:52:19;;;;;;;13.07;9.87;;;;;;;;;;5060177;28;20218;-19
2022/03/02 00:54:46;;;;;;;13.37;9.70;;;;;;;;;;5059595;28;20734;-19
2022/03/02 00:57:13;;;;;;;11.60;9.23;;;;;;;;;;5059203;28;20248;-19
2022/03/02 00:59:41;;;;;;;11.43;9.83;;;;;;;;;;5059503;28;20290;-19
2022/03/02 01:02:08;;;;;;;11.07;8.80;;;;;;;;;;5059265;28;20959;-19
2022/03/02 01:04:35;;;;;;;11.27;8.93;;;;;;;;;;5056125;28;20238;-19
2022/03/02 01:07:02;;;;;;;12.80;9.40;;;;;;;;;;5059308;28;20241;-19
2022/03/02 01:09:29;;;;;;;11.03;9.00;;;;;;;;;;5057910;28;20238;-19
2022/03/02 01:11:56;;;;;;;11.33;8.77;;;;;;;;;;5059229;28;20214;-19
2022/03/02 01:14:23;;;;;;;10.90;9.20;;;;;;;;;;5059272;28;20245;-19
2022/03/02 01:16:50;;;;;;;13.70;10.03;;;;;;;;;;5055540;28;20230;-19
2022/03/02 01:19:17;;;;;;;11.83;9.60;;;;;;;;;;5056168;28;20249;-19
2022/03/02 01:21:44;;;;;;;15.40;9.50;;;;;;;;;;5059244;28;20242;-19
2022/03/02 01:24:11;;;;;;;12.47;9.47;;;;;;;;;;5057845;28;20237;-19
2022/03/02 01:26:38;;;;;;;11.90;9.43;;;;;;;;;;5038579;28;20705;-19
2022/03/02 01:29:05;;;;;;;12.73;9.47;;;;;;;;;;5039519;28;20239;-19
2022/03/02 01:31:32;;;;;;;11.20;8.93;;;;;;;;;;5051874;28;20230;-19
2022/03/02 01:33:59;;;;;;;11.37;9.33;;;;;;;;;;5058644;28;20279;-19
2022/03/02 01:36:26;;;;;;;12.17;9.37;;;;;;;;;;5058609;28;20230;-19
2022/03/02 01:38:53;;;;;;;13.13;9.43;;;;;;;;;;5058789;28;20210;-20
2022/03/02 01:41:20;;;;;;;13.20;9.60;;;;;;;;;;5059242;28;20244;-19
2022/03/02 01:43:47;;;;;;;11.23;8.83;;;;;;;;;;5058663;28;20230;-19
2022/03/02 01:46:15;;;;;;;11.80;9.80;;;;;;;;;;5057976;28;20234;-19
2022/03/02 01:48:42;;;;;;;10.37;8.63;;;;;;;;;;5059318;28;20222;-20
2022/03/02 01:51:09;;;;;;;12.67;9.20;;;;;;;;;;5058250;28;20217;-19
2022/03/02 01:53:35;;;;;;;12.47;9.73;;;;;;;;;;5058329;28;20230;-19
2022/03/02 01:56:02;;;;;;;15.40;9.53;;;;;;;;;;5058953;28;20237;-19
2022/03/02 01:58:29;;;;;;;11.77;9.57;;;;;;;;;;5058450;28;20249;-19
2022/03/02 02:00:56;;;;;;;12.80;9.13;;;;;;;;;;5059039;28;20213;-19
2022/03/02 02:03:23;;;;;;;13.00;10.00;;;;;;;;;;5058991;28;20222;-19
2022/03/02 02:05:50;;;;;;;14.37;9.90;;;;;;;;;;5058253;28;20225;-19
2022/03/02 02:08:17;;;;;;;12.60;9.60;;;;;;;;;;5058104;28;20234;-19
2022/03/02 02:10:44;;;;;;;12.40;9.53;;;;;;;;;;5059566;28;20230;-19
2022/03/02 02:13:11;;;;;;;12.93;9.87;;;;;;;;;;5058839;28;20222;-19
2022/03/02 02:15:38;;;;;;;10.90;8.73;;;;;;;;;;5057860;28;20238;-19
2022/03/02 02:18:05;;;;;;;12.40;9.83;;;;;;;;;;5058326;28;20237;-19
2022/03/02 02:20:32;;;;;;;13.30;9.57;;;;;;;;;;5057560;28;20226;-19
2022/03/02 02:22:59;;;;;;;11.73;9.20;;;;;;;;;;5057296;28;20272;-19
2022/03/02 02:25:26;;;;;;;11.93;9.60;;;;;;;;;;5058520;28;20693;-19
2022/03/02 02:27:53;;;;;;;13.07;9.33;;;;;;;;;;5058281;28;20221;-19
2022/03/02 02:30:21;;;;;;;14.33;9.60;;;;;;;;;;5057924;28;20233;-19
2022/03/02 02:32:48;;;;;;;11.60;9.73;;;;;;;;;;5057492;28;20229;-19
2022/03/02 02:35:15;;;;;;;11.37;9.00;;;;;;;;;;5058991;28;20244;-19
2022/03/02 02:37:42;;;;;;;13.70;9.70;;;;;;;;;;5057800;28;20317;-19
2022/03/02 02:40:09;;;;;;;11.63;9.73;;;;;;;;;;5057469;28;20270;-19
2022/03/02 02:42:36;;;;;;;12.30;9.40;;;;;;;;;;5058360;28;20234;-19
2022/03/02 02:45:03;;;;;;;11.77;9.47;;;;;;;;;;5057665;28;20230;-19
2022/03/02 02:47:30;;;;;;;12.37;9.83;;;;;;;;;;5057971;28;20221;-19
2022/03/02 02:49:57;;;;;;;12.40;9.40;;;;;;;;;;5057820;28;20233;-19
2022/03/02 02:52:24;;;;;;;11.67;9.33;;;;;;;;;;5057498;28;20237;-19
2022/03/02 02:54:51;;;;;;;12.20;8.57;;;;;;;;;;5057310;28;20241;-19
2022/03/02 02:57:18;;;;;;;12.77;9.57;;;;;;;;;;5057724;28;20226;-19
2022/03/02 02:59:45;;;;;;;13.27;9.20;;;;;;;;;;5057768;28;20222;-19
2022/03/02 03:02:11;;;;;;;12.30;9.47;;;;;;;;;;5057406;28;20226;-19
2022/03/02 03:04:40;;;;;;;12.53;9.03;;;;;;;;;;5057053;28;20316;-19
2022/03/02 03:07:07;;;;;;;11.63;9.00;;;;;;;;;;5056755;28;20234;-19
2022/03/02 03:09:34;;;;;;;13.27;9.70;;;;;;;;;;5057887;28;20222;-19
2022/03/02 03:12:01;;;;;;;11.97;9.50;;;;;;;;;;5057661;28;20222;-19
2022/03/02 03:14:28;;;;;;;11.43;9.23;;;;;;;;;;5057157;28;20230;-19
2022/03/02 03:16:55;;;;;;;13.77;9.40;;;;;;;;;;5058062;28;20238;-19
2022/03/02 03:19:22;;;;;;;12.97;9.63;;;;;;;;;;5057335;28;20967;-19
2022/03/02 03:21:49;;;;;;;12.23;10.00;;;;;;;;;;5081127;22;20232;-18
2022/03/02 03:24:16;;;;;;;12.23;9.83;;;;;;;;;;5082544;28;20229;-18
2022/03/02 03:26:43;;;;;;;14.03;10.17;;;;;;;;;;5092185;28;20243;-18
2022/03/02 03:29:10;;;;;;;11.93;9.20;;;;;;;;;;5071723;28;20226;-18
2022/03/02 03:31:37;;;;;;;11.87;9.40;;;;;;;;;;5085243;28;20235;-18
2022/03/02 03:34:04;;;;;;;12.27;9.77;;;;;;;;;;5092264;28;20235;-18
2022/03/02 03:36:31;;;;;;;12.83;9.83;;;;;;;;;;5092064;28;20248;-18
2022/03/02 03:38:58;;;;;;;12.30;9.40;;;;;;;;;;5087753;28;20221;-19
2022/03/02 03:41:25;;;;;;;11.60;8.90;;;;;;;;;;5071648;28;20224;-18
2022/03/02 03:43:52;;;;;;;12.07;9.60;;;;;;;;;;5071789;28;20217;-18
2022/03/02 03:46:19;;;;;;;11.80;8.93;;;;;;;;;;5082041;28;20233;-18
2022/03/02 03:48:46;;;;;;;12.07;9.70;;;;;;;;;;5091526;28;20282;-18
2022/03/02 03:51:13;;;;;;;13.63;10.30;;;;;;;;;;5091865;28;20228;-18
2022/03/02 03:53:40;;;;;;;12.23;9.80;;;;;;;;;;5091718;28;20229;-18
2022/03/02 03:56:07;;;;;;;11.67;9.60;;;;;;;;;;5086838;28;20241;-18
2022/03/02 03:58:34;;;;;;;12.70;10.07;;;;;;;;;;5074863;28;20225;-18
2022/03/02 04:01:01;;;;;;;12.30;9.47;;;;;;;;;;5091615;28;20239;-18
2022/03/02 04:03:28;;;;;;;13.20;9.57;;;;;;;;;;5091695;28;20650;-18
2022/03/02 04:05:55;;;;;;;12.97;9.77;;;;;;;;;;5091512;28;21047;-18
2022/03/02 04:08:22;;;;;;;12.37;9.30;;;;;;;;;;5091737;28;20683;-18
2022/03/02 04:10:49;;;;;;;13.40;9.40;;;;;;;;;;5091331;28;20229;-18
2022/03/02 04:13:16;;;;;;;12.40;9.30;;;;;;;;;;5091642;28;20228;-18
2022/03/02 04:15:43;;;;;;;11.77;9.10;;;;;;;;;;5091454;28;20251;-18
2022/03/02 04:18:11;;;;;;;12.40;9.30;;;;;;;;;;5091143;28;20224;-18
2022/03/02 04:20:38;;;;;;;11.70;9.50;;;;;;;;;;5091108;28;20225;-18
2022/03/02 04:23:05;;;;;;;11.30;8.77;;;;;;;;;;5090793;28;20240;-18
2022/03/02 04:25:32;;;;;;;12.53;9.67;;;;;;;;;;5091414;28;20228;-18
2022/03/02 04:27:59;;;;;;;12.73;9.97;;;;;;;;;;5091479;28;20221;-18
2022/03/02 04:30:27;;;;;;;12.10;9.80;;;;;;;;;;5091098;28;20724;-18
2022/03/02 04:32:54;;;;;;;12.73;10.10;;;;;;;;;;5091324;28;20235;-18
2022/03/02 04:35:21;;;;;;;12.57;9.20;;;;;;;;;;5091196;28;20247;-18
2022/03/02 04:37:48;;;;;;;12.77;9.83;;;;;;;;;;5090953;28;20216;-18
2022/03/02 04:40:16;;;;;;;14.33;9.87;;;;;;;;;;5091281;28;20225;-18
2022/03/02 04:42:43;;;;;;;12.90;9.80;;;;;;;;;;5091091;28;20797;-18
2022/03/02 04:45:10;;;;;;;11.83;9.30;;;;;;;;;;5091091;28;20228;-18
2022/03/02 04:47:37;;;;;;;13.20;9.90;;;;;;;;;;5091468;28;20706;-18
2022/03/02 04:50:04;;;;;;;12.83;9.93;;;;;;;;;;5090936;28;20233;-18
2022/03/02 04:52:31;;;;;;;12.27;9.23;;;;;;;;;;5090931;28;20236;-19
2022/03/02 04:55:07;;;;;;;12.20;9.37;;;;;;;;;;5090875;28;20239;-18
2022/03/02 04:57:34;;;;;;;12.83;9.77;;;;;;;;;;5090843;28;20695;-18
2022/03/02 05:00:01;;;;;;;12.40;9.73;;;;;;;;;;5090613;28;20225;-18
2022/03/02 05:02:28;;;;;;;12.77;9.30;;;;;;;;;;5090740;28;20233;-18
2022/03/02 05:04:56;;;;;;;11.90;9.70;;;;;;;;;;5090501;28;20240;-18
2022/03/02 05:07:22;;;;;;;13.10;9.40;;;;;;;;;;5090732;28;20221;-18
2022/03/02 05:09:49;;;;;;;12.80;9.67;;;;;;;;;;5091141;28;20213;-18
2022/03/02 05:12:16;;;;;;;12.73;9.77;;;;;;;;;;5090958;28;20941;-18
2022/03/02 05:14:43;;;;;;;13.13;9.93;;;;;;;;;;5090510;28;20232;-18
2022/03/02 05:17:10;;;;;;;13.33;9.83;;;;;;;;;;5090960;28;20217;-18
2022/03/02 05:19:39;;;;;;;12.50;9.50;;;;;;;;;;5090870;28;20272;-18
2022/03/02 05:22:06;;;;;;;14.10;10.73;;;;;;;;;;5090184;28;20244;-18
2022/03/02 05:24:33;;;;;;;13.80;9.90;;;;;;;;;;5090496;28;20602;-18
2022/03/02 05:27:00;;;;;;;14.67;10.40;;;;;;;;;;5090277;28;20342;-18
2022/03/02 05:29:27;;;;;;;14.40;10.73;;;;;;;;;;5091758;28;20228;-19
2022/03/02 05:31:54;;;;;;;13.93;10.63;;;;;;;;;;5093651;28;20237;-17
2022/03/02 05:34:22;;;;;;;13.30;10.50;;;;;;;;;;5094288;28;20224;-20
2022/03/02 05:36:49;;;;;;;13.33;9.47;;;;;;;;;;5093299;28;20719;-20
2022/03/02 05:39:16;;;;;;;13.13;10.70;;;;;;;;;;5093977;28;20255;-20
2022/03/02 05:41:43;;;;;;;13.00;10.57;;;;;;;;;;5093793;28;20354;-20
2022/03/02 05:44:11;;;;;;;13.20;10.70;;;;;;;;;;5093663;28;20240;-18
2022/03/02 05:46:39;;;;;;;11.93;9.73;;;;;;;;;;5093487;28;20227;-17
2022/03/02 05:49:08;;;;;;;13.40;10.43;;;;;;;;;;5093302;28;20306;-18
2022/03/02 05:51:35;;;;;;;13.47;10.37;;;;;;;;;;5093700;28;20224;-20
2022/03/02 05:54:03;;;;;;;12.93;10.17;;;;;;;;;;5093813;28;20236;-20
2022/03/02 05:56:30;;;;;;;13.23;10.10;;;;;;;;;;5093514;28;20327;-20
2022/03/02 05:58:58;;;;;;;12.90;10.43;;;;;;;;;;5093201;28;20240;-18
2022/03/02 06:01:24;;;;;;;13.97;10.10;;;;;;;;;;5093282;28;20699;-20
2022/03/02 06:03:52;;;;;;;14.80;10.43;;;;;;;;;;5093493;28;20232;-20
2022/03/02 06:06:38;;;;;;;12.63;9.93;;;;;;;;;;5093494;28;20229;-20
2022/03/02 06:09:05;;;;;;;11.77;9.37;;;;;;;;;;5093293;28;20221;-19
2022/03/02 06:11:32;;;;;;;13.67;9.90;;;;;;;;;;5112824;28;20232;-20
2022/03/02 06:13:59;;;;;;;13.00;10.23;;;;;;;;;;5114105;28;20212;-18
2022/03/02 06:16:26;;;;;;;12.40;9.13;;;;;;;;;;5102210;28;20233;-19
2022/03/02 06:18:53;;;;;;;14.93;10.40;;;;;;;;;;5093403;28;20818;-18
2022/03/02 06:21:20;;;;;;;13.40;10.33;;;;;;;;;;5092358;28;20267;-18
2022/03/02 06:23:47;;;;;;;12.83;10.00;;;;;;;;;;5093271;28;20319;-18
2022/03/02 06:26:14;;;;;;;14.60;10.90;;;;;;;;;;5093216;28;20228;-18
2022/03/02 06:28:41;;;;;;;12.70;10.27;;;;;;;;;;5093220;28;20217;-18
2022/03/02 06:31:08;;;;;;;12.57;9.97;;;;;;;;;;5092756;28;20221;-18
2022/03/02 06:33:36;;;;;;;13.07;10.23;;;;;;;;;;5072635;28;20229;-18
2022/03/02 06:36:02;;;;;;;12.83;10.20;;;;;;;;;;5072749;28;20222;-18
2022/03/02 06:38:29;;;;;;;12.97;9.80;;;;;;;;;;5072511;28;20230;-18
2022/03/02 06:40:57;;;;;;;14.50;10.97;;;;;;;;;;5071114;28;20233;-18
2022/03/02 06:43:24;;;;;;;13.67;10.23;;;;;;;;;;5083360;28;20988;-18
2022/03/02 06:45:51;;;;;;;14.33;10.73;;;;;;;;;;5092738;28;20925;-18
2022/03/02 06:48:18;;;;;;;13.43;10.40;;;;;;;;;;5093108;28;20343;-18
2022/03/02 06:50:45;;;;;;;14.30;10.50;;;;;;;;;;5092681;28;20259;-18
2022/03/02 06:53:12;;;;;;;13.73;10.83;;;;;;;;;;5092381;28;20228;-18
2022/03/02 06:55:44;;;;;;;15.07;10.33;;;;;;;;;;5112904;28;20950;-18
2022/03/02 06:58:11;;;;;;;11.87;9.70;;;;;;;;;;5113070;28;20234;-18
2022/03/02 07:00:38;;;;;;;14.07;10.60;;;;;;;;;;5108294;28;20714;-18
2022/03/02 07:03:06;;;;;;;13.90;10.70;;;;;;;;;;5092503;28;20283;-18
2022/03/02 07:05:33;;;;;;;12.93;10.57;;;;;;;;;;5092112;28;20224;-18
2022/03/02 07:08:01;;;;;;;14.73;10.60;;;;;;;;;;5092325;28;20229;-18
2022/03/02 07:10:28;;;;;;;14.63;11.10;;;;;;;;;;5092455;28;20235;-18
2022/03/02 07:12:55;;;;;;;13.00;10.00;;;;;;;;;;5092532;28;20220;-18
2022/03/02 07:15:22;;;;;;;14.93;11.10;;;;;;;;;;5091863;28;20221;-18
2022/03/02 07:17:49;;;;;;;14.43;11.07;;;;;;;;;;5092428;28;20243;-18
2022/03/02 07:20:16;;;;;;;13.80;10.60;;;;;;;;;;5092424;28;20225;-18
2022/03/02 07:22:43;;;;;;;14.13;10.93;;;;;;;;;;5091709;28;20248;-18
2022/03/02 07:25:11;;;;;;;13.97;10.27;;;;;;;;;;5092321;28;20213;-18
2022/03/02 07:27:38;;;;;;;13.63;10.73;;;;;;;;;;5091738;28;20236;-18
2022/03/02 07:30:05;;;;;;;15.40;10.97;;;;;;;;;;5092069;28;20704;-18
2022/03/02 07:32:32;;;;;;;14.23;10.40;;;;;;;;;;5092044;28;20259;-18
2022/03/02 07:35:00;;;;;;;14.47;11.13;;;;;;;;;;5092042;28;20247;-18
2022/03/02 07:37:27;;;;;;;13.10;10.77;;;;;;;;;;5094493;28;20275;-18
2022/03/02 07:39:54;;;;;;;12.73;10.07;;;;;;;;;;5112466;28;20927;-18
2022/03/02 07:42:21;;;;;;;13.40;10.67;;;;;;;;;;5094207;28;20667;-18
2022/03/02 07:44:48;;;;;;;13.30;10.57;;;;;;;;;;5112393;28;20694;-18
2022/03/02 07:47:15;;;;;;;13.37;10.57;;;;;;;;;;5093469;28;20683;-18
2022/03/02 07:49:43;;;;;;;13.90;10.57;;;;;;;;;;5091590;28;20231;-18
2022/03/02 07:52:10;;;;;;;13.33;10.33;;;;;;;;;;5091229;28;20711;-18
2022/03/02 07:54:37;;;;;;;13.23;9.93;;;;;;;;;;5091911;28;20223;-18
2022/03/02 07:57:04;;;;;;;14.47;10.57;;;;;;;;;;5091632;28;20248;-18
2022/03/02 07:59:31;;;;;;;13.23;10.67;;;;;;;;;;5091292;28;20228;-18
2022/03/02 08:01:58;;;;;;;14.37;11.03;;;;;;;;;;5091504;28;20627;-18
2022/03/02 08:04:25;;;;;;;13.97;10.40;;;;;;;;;;5091812;28;20947;-18
2022/03/02 08:06:52;;;;;;;13.43;9.93;;;;;;;;;;5091537;28;20731;-18
2022/03/02 08:09:19;;;;;;;11.57;9.37;;;;;;;;;;5091598;28;20603;-18
2022/03/02 08:11:46;;;;;;;14.23;10.40;;;;;;;;;;5091084;28;20229;-18
2022/03/02 08:14:13;;;;;;;13.87;10.37;;;;;;;;;;5091637;28;20225;-18
2022/03/02 08:16:41;;;;;;;14.03;10.43;;;;;;;;;;5091582;28;20221;-18
2022/03/02 08:19:08;;;;;;;13.57;10.57;;;;;;;;;;5091602;28;20217;-18
2022/03/02 08:21:35;;;;;;;12.10;9.90;;;;;;;;;;5091080;28;20841;-18
2022/03/02 08:24:02;;;;;;;12.80;9.20;;;;;;;;;;5091804;28;20809;-18
2022/03/02 08:26:30;;;;;;;14.80;10.33;;;;;;;;;;5091660;28;20220;-18
2022/03/02 08:28:57;;;;;;;12.93;10.30;;;;;;;;;;5091067;28;21002;-18
2022/03/02 08:31:24;;;;;;;13.33;10.00;;;;;;;;;;5090968;28;20611;-18
2022/03/02 08:33:51;;;;;;;14.17;10.47;;;;;;;;;;5091360;28;20220;-18
2022/03/02 08:36:21;;;;;;;11.87;9.73;;;;;;;;;;5091271;28;20229;-18
2022/03/02 08:38:48;;;;;;;14.13;9.90;;;;;;;;;;5091177;28;20224;-18
2022/03/02 08:41:15;;;;;;;13.53;9.80;;;;;;;;;;5091148;28;20229;-18
2022/03/02 08:43:42;;;;;;;14.43;10.13;;;;;;;;;;5090649;28;20236;-18
2022/03/02 08:46:09;;;;;;;13.90;10.20;;;;;;;;;;5091077;28;20224;-18
2022/03/02 08:48:36;;;;;;;12.97;10.07;;;;;;;;;;5091102;28;20699;-18
2022/03/02 08:51:04;;;;;;;15.90;11.03;;;;;;;;;;5091117;28;20726;-18
2022/03/02 08:53:31;;;;;;;13.53;10.20;;;;;;;;;;5090720;28;20789;-18
2022/03/02 08:55:58;;;;;;;13.27;10.13;;;;;;;;;;5090856;28;20232;-18
2022/03/02 08:58:25;;;;;;;13.03;9.97;;;;;;;;;;5090796;28;20279;-18
2022/03/02 09:00:52;;;;;;;13.57;10.00;;;;;;;;;;5091118;28;20225;-18
2022/03/02 09:03:19;;;;;;;12.73;9.83;;;;;;;;;;5090694;28;20236;-18
2022/03/02 09:05:47;;;;;;;13.73;10.20;;;;;;;;;;5093414;28;20286;-18
2022/03/02 09:08:14;;;;;;;12.10;9.57;;;;;;;;;;5094178;28;20225;-18
2022/03/02 09:10:40;;;;;;;11.80;9.37;;;;;;;;;;5094001;28;20246;-18
2022/03/02 09:13:07;;;;;;;14.53;10.60;;;;;;;;;;5094258;28;20225;-18
2022/03/02 09:15:37;;;;;;;14.60;10.07;;;;;;;;;;5093826;28;20229;-18
2022/03/02 09:18:04;;;;;;;11.90;9.23;;;;;;;;;;5094032;28;20729;-18
2022/03/02 09:20:31;;;;;;;12.73;9.77;;;;;;;;;;5094229;28;20308;-18
2022/03/02 09:22:58;;;;;;;12.90;9.77;;;;;;;;;;5093846;28;20255;-20
2022/03/02 09:25:25;;;;;;;12.27;9.27;;;;;;;;;;5093925;28;20231;-18
2022/03/02 09:27:52;;;;;;;16.17;10.27;;;;;;;;;;5093706;28;20235;-18
2022/03/02 09:30:19;;;;;;;13.03;9.23;;;;;;;;;;5094203;28;20233;-18
2022/03/02 09:32:46;;;;;;;12.50;10.03;;;;;;;;;;5094179;28;20221;-18
2022/03/02 09:35:13;;;;;;;12.40;9.90;;;;;;;;;;5094082;28;20221;-18
2022/03/02 09:37:40;;;;;;;9.67;8.53;;;;;;;;;;5093570;28;20870;-18
2022/03/02 09:40:07;;;;;;;13.60;10.20;;;;;;;;;;5093669;28;20232;-18
2022/03/02 09:42:34;;;;;;;13.03;9.50;;;;;;;;;;5094009;28;20217;-18
2022/03/02 09:45:01;;;;;;;12.17;9.30;;;;;;;;;;5093756;28;20225;-18
2022/03/02 09:47:28;;;;;;;12.97;9.40;;;;;;;;;;5058088;28;20228;-18
2022/03/02 09:49:55;;;;;;;12.53;9.70;;;;;;;;;;5093665;28;20256;-18
2022/03/02 09:52:22;;;;;;;11.10;9.00;;;;;;;;;;5093753;28;20255;-18
2022/03/02 09:54:49;;;;;;;14.10;9.83;;;;;;;;;;5093574;28;20225;-18
2022/03/02 09:57:15;;;;;;;12.87;9.70;;;;;;;;;;5093619;28;20243;-18
2022/03/02 09:59:43;;;;;;;12.67;9.20;;;;;;;;;;5106573;28;20239;-18
2022/03/02 10:02:11;;;;;;;12.70;9.37;;;;;;;;;;5096520;28;20586;-18
2022/03/02 10:04:40;;;;;;;12.07;9.13;;;;;;;;;;5093377;28;20308;-18
2022/03/02 10:09:53;;;;;;;13.27;9.50;;;;;;;;;;5092741;28;20236;-18
2022/03/02 10:12:20;;;;;;;12.50;9.67;;;;;;;;;;5093588;28;20209;-18
2022/03/02 10:14:47;;;;;;;11.17;8.73;;;;;;;;;;5093091;28;20213;-18
2022/03/02 10:17:14;;;;;;;11.47;8.70;;;;;;;;;;5093122;28;20236;-18
2022/03/02 10:19:42;;;;;;;12.10;9.20;;;;;;;;;;5093226;28;20339;-18
2022/03/02 10:22:09;;;;;;;11.33;9.23;;;;;;;;;;5092486;28;20240;-18
2022/03/02 10:24:36;;;;;;;12.03;9.57;;;;;;;;;;5093216;28;20213;-18
2022/03/02 10:27:02;;;;;;;10.67;8.50;;;;;;;;;;5093270;28;20220;-18
2022/03/02 10:29:31;;;;;;;12.40;8.97;;;;;;;;;;5093056;28;20232;-18
2022/03/02 10:31:58;;;;;;;11.47;8.53;;;;;;;;;;5092657;28;20225;-17
2022/03/02 10:34:25;;;;;;;11.67;9.23;;;;;;;;;;5092772;28;20282;-17
2022/03/02 10:36:52;;;;;;;10.80;8.50;;;;;;;;;;5093066;28;20230;-17
2022/03/02 10:39:19;;;;;;;11.17;8.67;;;;;;;;;;5093038;28;20232;-17
2022/03/02 10:41:46;;;;;;;11.13;8.40;;;;;;;;;;5093434;28;20691;-17
2022/03/02 10:44:16;;;;;;;12.43;9.53;;;;;;;;;;5110143;28;20228;-17
2022/03/02 10:46:43;;;;;;;12.50;8.37;;;;;;;;;;5099099;28;20221;-17
2022/03/02 10:49:11;;;;;;;12.33;9.30;;;;;;;;;;5092632;28;20225;-17
2022/03/02 10:51:38;;;;;;;10.63;8.30;;;;;;;;;;5092671;28;20221;-18
2022/03/02 10:54:04;;;;;;;12.70;8.50;;;;;;;;;;5091814;28;20229;-19
2022/03/02 10:56:33;;;;;;;12.33;9.10;;;;;;;;;;5092615;28;20227;-18
2022/03/02 10:59:00;;;;;;;11.83;8.73;;;;;;;;;;5092992;28;20279;-17
2022/03/02 11:01:27;;;;;;;11.27;8.60;;;;;;;;;;5092387;28;20283;-17
2022/03/02 11:03:55;;;;;;;11.50;8.53;;;;;;;;;;5092565;28;20224;-17
2022/03/02 11:06:22;;;;;;;11.73;8.70;;;;;;;;;;5093178;28;20229;-18
2022/03/02 11:08:49;;;;;;;11.77;8.90;;;;;;;;;;5093438;28;20703;-19
2022/03/02 11:11:16;;;;;;;12.70;8.90;;;;;;;;;;5093968;28;20229;-17
2022/03/02 11:13:49;;;;;;;13.57;8.93;;;;;;;;;;5092418;28;20229;-18
2022/03/02 11:16:16;;;;;;;12.83;8.70;;;;;;;;;;5091933;28;20228;-17
2022/03/02 11:18:50;;;;;;;11.90;8.87;;;;;;;;;;5092713;28;20233;-19
2022/03/02 11:21:21;;;;;;;13.60;8.57;;;;;;;;;;5092058;28;20845;-18
2022/03/02 11:23:48;;;;;;;10.47;8.10;;;;;;;;;;5092139;28;20252;-17
2022/03/02 11:26:16;;;;;;;12.50;8.07;;;;;;;;;;5092008;28;20244;-18
2022/03/02 11:28:43;;;;;;;9.60;7.43;;;;;;;;;;5112217;28;20227;-17
2022/03/02 11:31:10;;;;;;;9.60;7.73;;;;;;;;;;5103262;28;20311;-17
2022/03/02 11:33:37;;;;;;;11.87;8.23;;;;;;;;;;5092239;28;20986;-17
2022/03/02 11:36:04;;;;;;;12.23;8.30;;;;;;;;;;5092091;28;20220;-18
2022/03/02 11:38:31;;;;;;;9.33;7.90;;;;;;;;;;5091727;28;20237;-17
2022/03/02 11:40:58;;;;;;;10.17;7.47;;;;;;;;;;5092487;28;20231;-18
2022/03/02 11:43:28;;;;;;;10.23;7.97;;;;;;;;;;5092091;28;20220;-18
2022/03/02 11:45:57;;;;;;;10.17;7.83;;;;;;;;;;5091814;28;20233;-17
2022/03/02 11:48:25;;;;;;;11.10;8.30;;;;;;;;;;5091340;28;20279;-18
2022/03/02 11:50:52;;;;;;;9.90;7.67;;;;;;;;;;5091743;28;20216;-18
2022/03/02 11:53:19;;;;;;;10.73;7.60;;;;;;;;;;5091865;28;20220;-18
2022/03/02 11:55:46;;;;;;;9.17;7.30;;;;;;;;;;5091440;28;20691;-18
2022/03/02 11:58:13;;;;;;;9.87;7.47;;;;;;;;;;5091668;28;20240;-18
2022/03/02 12:00:40;;;;;;;9.97;7.43;;;;;;;;;;5091161;28;20268;-17
2022/03/02 12:03:07;;;;;;;10.50;7.70;;;;;;;;;;5091794;28;20687;-18
2022/03/02 12:05:34;;;;;;;9.50;7.77;;;;;;;;;;5091506;28;20232;-17
2022/03/02 12:08:01;;;;;;;10.23;7.40;;;;;;;;;;5091752;28;20237;-18
2022/03/02 12:10:29;;;;;;;8.63;6.60;;;;;;;;;;5090933;28;20975;-18
2022/03/02 12:12:56;;;;;;;10.77;7.60;;;;;;;;;;5091926;28;20225;-17
2022/03/02 12:15:27;;;;;;;9.33;7.30;;;;;;;;;;5091799;28;20221;-17
2022/03/02 12:17:54;;;;;;;13.70;7.67;;;;;;;;;;5091501;28;20240;-17
2022/03/02 12:20:21;;;;;;;11.27;7.33;;;;;;;;;;5091416;28;20255;-17
2022/03/02 12:22:48;;;;;;;9.73;7.07;;;;;;;;;;5090426;28;20241;-18
2022/03/02 12:25:17;;;;;;;8.10;6.47;;;;;;;;;;5091620;28;20307;-18
2022/03/02 12:27:49;;;;;;;9.47;7.13;;;;;;;;;;5091603;28;20737;-17
2022/03/02 12:30:17;;;;;;;9.17;6.70;;;;;;;;;;5091277;28;20227;-18
2022/03/02 12:32:45;;;;;;;11.27;7.13;;;;;;;;;;5090533;28;20229;-17
2022/03/02 12:35:13;;;;;;;8.17;6.77;;;;;;;;;;5091078;28;20224;-18
2022/03/02 12:37:40;;;;;;;9.37;7.10;;;;;;;;;;5091439;28;20240;-18
2022/03/02 12:40:09;;;;;;;9.63;7.33;;;;;;;;;;5094863;28;20227;-18
2022/03/02 12:42:36;;;;;;;8.43;6.87;;;;;;;;;;5094934;28;20266;-17
2022/03/02 12:45:03;;;;;;;8.27;6.20;;;;;;;;;;5110597;28;20988;-18
2022/03/02 12:47:30;;;;;;;8.70;6.73;;;;;;;;;;5074196;28;21038;-18
2022/03/02 12:49:57;;;;;;;8.40;6.33;;;;;;;;;;5074814;28;20225;-18
2022/03/02 12:52:25;;;;;;;7.60;6.10;;;;;;;;;;5074455;28;20706;-18
2022/03/02 12:54:52;;;;;;;9.40;6.77;;;;;;;;;;5086533;28;20257;-17
2022/03/02 12:57:19;;;;;;;8.53;6.33;;;;;;;;;;5115113;28;20246;-17
2022/03/02 12:59:46;;;;;;;8.17;6.17;;;;;;;;;;5114956;28;20227;-18
2022/03/02 13:02:13;;;;;;;7.93;6.03;;;;;;;;;;5096601;28;20235;-17
2022/03/02 13:04:40;;;;;;;8.67;5.80;;;;;;;;;;5094607;28;20225;-17
2022/03/02 13:07:08;;;;;;;9.00;6.57;;;;;;;;;;5093827;28;20264;-18
2022/03/02 13:09:35;;;;;;;7.97;6.00;;;;;;;;;;5094224;28;20223;-19
2022/03/02 13:12:02;;;;;;;8.90;6.03;;;;;;;;;;5094019;28;20221;-17
2022/03/02 13:14:30;;;;;;;7.67;6.07;;;;;;;;;;5093988;28;20251;-18
2022/03/02 13:16:57;;;;;;;7.30;5.57;;;;;;;;;;5093635;28;20270;-18
2022/03/02 13:19:38;;;;;;;7.33;5.77;;;;;;;;;;5094351;28;20246;-18
2022/03/02 13:22:05;;;;;;;7.27;5.73;;;;;;;;;;5093806;28;20315;-18
2022/03/02 13:24:32;;;;;;;7.67;5.90;;;;;;;;;;5094332;28;20672;-18
2022/03/02 13:27:11;;;;;;;7.33;5.63;;;;;;;;;;5093963;28;20237;-18
2022/03/02 13:29:38;;;;;;;8.17;5.63;;;;;;;;;;5074226;28;20755;-18
2022/03/02 13:32:05;;;;;;;7.47;5.70;;;;;;;;;;5090521;28;20229;-20
2022/03/02 13:34:32;;;;;;;7.87;5.43;;;;;;;;;;5094263;28;20350;-17
2022/03/02 13:37:02;;;;;;;7.23;5.33;;;;;;;;;;5094018;28;20233;-18
2022/03/02 13:39:30;;;;;;;7.60;5.73;;;;;;;;;;5093515;28;20239;-18
2022/03/02 13:41:57;;;;;;;7.53;5.20;;;;;;;;;;5094114;28;20283;-18
2022/03/02 13:44:24;;;;;;;9.17;5.47;;;;;;;;;;5093989;28;20236;-18
2022/03/02 13:46:51;;;;;;;6.57;5.37;;;;;;;;;;5093877;28;21006;-17
2022/03/02 13:49:18;;;;;;;6.17;5.07;;;;;;;;;;5093207;28;20941;-18
2022/03/02 13:51:45;;;;;;;7.43;5.07;;;;;;;;;;5093028;28;20226;-18
2022/03/02 13:54:12;;;;;;;6.60;5.23;;;;;;;;;;5093745;28;20220;-18
2022/03/02 13:56:40;;;;;;;7.07;5.13;;;;;;;;;;5093839;28;20218;-18
2022/03/02 13:59:07;;;;;;;6.37;4.80;;;;;;;;;;5093412;28;20232;-17
2022/03/02 14:01:34;;;;;;;7.13;4.90;;;;;;;;;;5093121;28;20229;-18
2022/03/02 14:04:01;;;;;;;6.33;4.67;;;;;;;;;;5093678;28;20229;-18
2022/03/02 14:06:28;;;;;;;6.00;4.67;;;;;;;;;;5093761;28;20213;-17
2022/03/02 14:08:55;;;;;;;5.27;4.50;;;;;;;;;;5093752;28;20209;-18
2022/03/02 14:11:22;;;;;;;5.88;4.43;;;;;;;;;;5093172;28;21007;-18
2022/03/02 14:13:49;;;;;;;6.47;4.82;;;;;;;;;;5093486;28;20683;-18
2022/03/02 14:16:16;;;;;;;5.78;4.75;;;;;;;;;;5093472;28;20217;-18
2022/03/02 14:18:46;;;;;;;7.00;5.57;;;;;;;;;;5093264;28;20233;-18
2022/03/02 14:21:15;;;;;;;6.60;4.70;;;;;;;;;;5092550;28;20235;-18
2022/03/02 14:23:49;;;;;;;4.78;4.20;;;;;;;;;;5092684;28;20229;-18
2022/03/02 14:26:16;;;;;;;5.72;4.57;;;;;;;;;;5093206;28;20233;-18
2022/03/02 14:28:43;;;;;;;6.50;5.03;;;;;;;;;;5093329;28;20209;-18
2022/03/02 14:31:10;;;;;;;5.07;4.10;;;;;;;;;;5093023;28;20324;-18